Time;durP1;ratioP1;P1;durP2;ratioP2;P2;SDS_P1;SDS_P2;PMS_P1;PMS_P2;Temp;Humidity;BMP_temperature;BMP_pressure;BME280_temperature;BME280_humidity;BME280_pressure;Samples;Min_cycle;Max_cycle;Signal;HPM_P1;HPM_P2
2022/06/14 00:01:29;;;;;;;1999.90;999.90;;;;;;;17.18;100.00;95205.72;5097501;28;20204;-67
2022/06/14 00:03:56;;;;;;;1999.90;999.90;;;;;;;17.11;100.00;95192.19;5097548;28;20184;-67
2022/06/14 00:06:24;;;;;;;1999.90;999.90;;;;;;;17.13;100.00;95165.69;5114800;28;20318;-68
2022/06/14 00:08:51;;;;;;;1999.90;999.90;;;;;;;17.16;100.00;95152.97;5097569;28;20183;-67
2022/06/14 00:11:29;;;;;;;1999.90;999.90;;;;;;;17.08;100.00;95121.34;5097622;28;20187;-58
2022/06/14 00:13:55;;;;;;;1999.90;999.90;;;;;;;17.12;100.00;95097.13;5097458;28;20189;-59
2022/06/14 00:16:22;;;;;;;1999.90;999.90;;;;;;;17.09;100.00;95075.97;5097191;28;20270;-59
2022/06/14 00:18:48;;;;;;;1999.90;999.90;;;;;;;17.03;100.00;95044.66;5097692;28;20187;-59
2022/06/14 00:21:14;;;;;;;1999.90;999.90;;;;;;;17.02;100.00;95048.63;5097075;28;20271;-58
2022/06/14 00:23:40;;;;;;;1999.90;999.90;;;;;;;16.99;100.00;95021.94;5114661;28;20192;-58
2022/06/14 00:26:07;;;;;;;1999.90;999.90;;;;;;;16.97;100.00;95007.84;5097717;28;20176;-58
2022/06/14 00:28:34;;;;;;;1999.90;999.90;;;;;;;16.95;100.00;94988.22;5097289;28;20184;-62
2022/06/14 00:31:04;;;;;;;1999.90;999.90;;;;;;;16.96;100.00;94957.41;5114008;28;20211;-68
2022/06/14 00:33:30;;;;;;;1999.90;999.90;;;;;;;16.90;100.00;94933.66;5097295;28;20179;-58
2022/06/14 00:36:01;;;;;;;1999.90;999.90;;;;;;;16.87;100.00;94899.47;5113966;28;20199;-57
2022/06/14 00:38:27;;;;;;;1999.90;999.90;;;;;;;16.88;100.00;94867.91;5097236;28;20195;-58
2022/06/14 00:40:55;;;;;;;1999.90;999.90;;;;;;;16.87;100.00;94854.56;5096876;28;20193;-58
2022/06/14 00:43:21;;;;;;;1999.90;999.90;;;;;;;16.77;100.00;94822.66;5113689;28;20291;-58
2022/06/14 00:45:48;;;;;;;1999.90;999.90;;;;;;;16.65;100.00;94782.19;5096700;28;20230;-58
2022/06/14 00:48:28;;;;;;;1999.90;999.90;;;;;;;16.58;100.00;94744.66;5113521;28;20202;-59
2022/06/14 00:51:07;;;;;;;1999.90;999.90;;;;;;;16.53;100.00;94711.44;5114225;28;20240;-67
2022/06/14 00:53:52;;;;;;;1999.90;999.90;;;;;;;16.43;100.00;94675.56;5096944;28;20282;-67
2022/06/14 00:56:24;;;;;;;1999.90;999.90;;;;;;;16.30;100.00;94625.31;5097282;28;20204;-66
2022/06/14 00:58:58;;;;;;;1999.90;999.90;;;;;;;16.26;100.00;94601.88;5113703;28;20229;-66
2022/06/14 01:01:28;;;;;;;1999.90;999.90;;;;;;;16.15;100.00;94569.28;5113498;28;20188;-67
2022/06/14 01:04:02;;;;;;;1999.90;999.90;;;;;;;16.06;100.00;94538.19;5114053;28;20196;-67
2022/06/14 01:06:40;;;;;;;1999.90;999.90;;;;;;;16.00;100.00;94495.97;5113826;28;20190;-55
2022/06/14 01:09:09;;;;;;;1999.90;999.90;;;;;;;15.98;100.00;94457.88;5096934;28;20188;-68
2022/06/14 01:12:11;;;;;;;1999.90;999.90;;;;;;;15.95;100.00;94423.00;5096252;28;20188;-69
2022/06/14 01:15:08;;;;;;;1999.90;999.90;;;;;;;15.90;100.00;94396.09;5087559;28;20252;-70
2022/06/14 01:17:42;;;;;;;1999.90;999.90;;;;;;;15.90;100.00;94370.53;5096338;28;20187;-69
2022/06/14 01:20:11;;;;;;;1999.90;999.90;;;;;;;15.85;100.00;94344.38;5096246;28;20270;-70
2022/06/14 01:22:37;;;;;;;1999.90;999.90;;;;;;;15.82;100.00;94322.53;5095816;28;20296;-69
2022/06/14 01:25:03;;;;;;;1999.90;999.90;;;;;;;15.79;100.00;94285.66;5096354;28;20203;-58
2022/06/14 01:27:32;;;;;;;1999.90;999.90;;;;;;;15.80;100.00;94273.41;5112474;28;20221;-55
2022/06/14 01:30:05;;;;;;;1999.90;999.90;;;;;;;15.79;100.00;94249.88;5114237;28;20226;-55
2022/06/14 01:32:35;;;;;;;1999.90;999.90;;;;;;;15.75;100.00;94230.00;5112993;28;20176;-53
2022/06/14 01:35:05;;;;;;;1999.90;999.90;;;;;;;15.73;100.00;94221.44;5113342;28;20195;-55
2022/06/14 01:37:31;;;;;;;1999.90;999.90;;;;;;;15.68;100.00;94202.03;5113332;28;20287;-55
2022/06/14 01:39:57;;;;;;;1999.90;999.90;;;;;;;15.76;100.00;94194.97;5114162;28;20210;-54
2022/06/14 01:42:25;;;;;;;1999.90;999.90;;;;;;;15.75;100.00;94196.19;5113312;28;20208;-59
2022/06/14 01:45:02;;;;;;;1999.90;999.90;;;;;;;15.71;100.00;94201.88;5114100;28;20187;-56
2022/06/14 01:47:38;;;;;;;1999.90;999.90;;;;;;;15.62;100.00;94179.88;5112942;28;20194;-56
2022/06/14 01:54:03;;;;;;;1999.90;999.90;;;;;;;15.52;100.00;94125.38;5113803;28;20209;-56
2022/06/14 01:56:55;;;;;;;1999.90;999.90;;;;;;;15.48;100.00;94111.75;5076379;28;20196;-57
2022/06/14 01:59:31;;;;;;;1999.90;999.90;;;;;;;15.42;100.00;94091.63;5113204;28;20194;-56
2022/06/14 02:02:11;;;;;;;1999.90;999.90;;;;;;;15.43;100.00;94071.13;5112577;28;20290;-66
2022/06/14 02:04:58;;;;;;;1999.90;999.90;;;;;;;15.45;100.00;94060.41;5112866;28;20282;-59
2022/06/14 02:07:50;;;;;;;1999.90;999.90;;;;;;;15.43;100.00;94049.13;5112896;28;20191;-58
2022/06/14 02:10:38;;;;;;;1999.90;999.90;;;;;;;15.47;100.00;94046.19;5095761;28;20222;-59
2022/06/14 02:13:19;;;;;;;1999.90;999.90;;;;;;;15.38;100.00;94044.25;5112480;28;20176;-59
2022/06/14 02:16:12;;;;;;;1999.90;999.90;;;;;;;15.33;100.00;94033.84;5112368;28;20213;-59
2022/06/14 02:18:43;;;;;;;1999.90;999.90;;;;;;;15.31;100.00;94008.81;5095562;28;20188;-58
2022/06/14 02:21:31;;;;;;;1999.90;999.90;;;;;;;15.31;100.00;93995.06;5112754;28;20251;-58
2022/06/14 02:24:24;;;;;;;1999.90;999.90;;;;;;;15.27;100.00;93994.44;5112606;28;20311;-67
2022/06/14 02:27:15;;;;;;;1999.90;999.90;;;;;;;15.28;100.00;93982.25;5095595;28;20188;-67
2022/06/14 02:29:49;;;;;;;1999.90;999.90;;;;;;;15.22;100.00;93983.31;5112857;28;20195;-67
2022/06/14 02:32:37;;;;;;;1999.90;999.90;;;;;;;15.18;100.00;93969.75;5112837;28;20187;-67
2022/06/14 02:35:26;;;;;;;1999.90;999.90;;;;;;;15.21;100.00;93952.31;5095624;28;20223;-67
2022/06/14 02:38:08;;;;;;;1999.90;999.90;;;;;;;15.13;100.00;93956.66;5095735;28;20296;-57
2022/06/14 02:40:38;;;;;;;1999.90;999.90;;;;;;;15.06;100.00;93940.50;5098694;28;20190;-69
2022/06/14 02:43:22;;;;;;;1999.90;999.90;;;;;;;15.04;100.00;93926.44;5116662;28;20211;-70
2022/06/14 02:45:54;;;;;;;1999.90;999.90;;;;;;;14.97;100.00;93926.78;5115656;28;20192;-70
2022/06/14 02:48:31;;;;;;;1999.90;999.90;;;;;;;14.93;100.00;93906.97;5115659;28;20191;-70
2022/06/14 02:51:15;;;;;;;1999.90;999.90;;;;;;;14.97;100.00;93899.31;5115444;28;20195;-69
2022/06/14 02:53:53;;;;;;;1999.90;999.90;;;;;;;14.93;100.00;93898.72;5116175;28;20278;-70
2022/06/14 02:56:25;;;;;;;1999.90;999.90;;;;;;;14.88;100.00;93885.63;5099271;28;20198;-64
2022/06/14 02:58:57;;;;;;;1999.90;999.90;;;;;;;14.84;100.00;93873.28;5099130;28;20194;-55
2022/06/14 03:01:30;;;;;;;1999.90;999.90;;;;;;;14.83;100.00;93860.78;5098849;28;20195;-56
2022/06/14 03:04:19;;;;;;;1999.90;999.90;;;;;;;14.77;100.00;93852.41;5116434;28;20176;-56
2022/06/14 03:07:01;;;;;;;1999.90;999.90;;;;;;;14.79;100.00;93838.94;5098677;28;20190;-53
2022/06/14 03:09:31;;;;;;;1999.90;999.90;;;;;;;14.78;100.00;93831.16;5115894;28;20241;-54
2022/06/14 03:12:21;;;;;;;1999.90;999.90;;;;;;;14.70;100.00;93841.75;5098175;28;20188;-54
2022/06/14 03:15:09;;;;;;;1999.90;999.90;;;;;;;14.65;100.00;93834.16;5116017;28;20195;-62
2022/06/14 03:17:44;;;;;;;1999.90;999.90;;;;;;;14.65;100.00;93812.19;5098398;28;20211;-63
2022/06/14 03:20:38;;;;;;;1999.90;999.90;;;;;;;14.67;100.00;93809.72;5116290;28;20172;-63
2022/06/14 03:23:31;;;;;;;1999.90;999.90;;;;;;;14.58;100.00;93798.03;5098835;28;20255;-62
2022/06/14 03:26:08;;;;;;;1999.90;999.90;;;;;;;14.54;100.00;93783.69;5114982;28;20211;-63
2022/06/14 03:28:40;;;;;;;1999.90;999.90;;;;;;;14.55;100.00;93755.75;5114776;28;20191;-62
2022/06/14 03:31:12;;;;;;;1999.90;999.90;;;;;;;14.59;100.00;93745.34;5114709;28;20195;-63
2022/06/14 03:33:45;;;;;;;1999.90;999.90;;;;;;;14.61;100.00;93745.63;5114743;28;20192;-68
2022/06/14 03:36:11;;;;;;;1999.90;999.90;;;;;;;14.71;100.00;93738.84;5098075;28;20206;-55
2022/06/14 03:38:55;;;;;;;1999.90;999.90;;;;;;;14.78;100.00;93737.72;5114652;28;20195;-54
2022/06/14 03:41:25;;;;;;;1999.90;999.90;;;;;;;14.95;100.00;93736.06;5097877;28;20201;-55
2022/06/14 03:43:52;;;;;;;1999.90;999.90;;;;;;;15.22;100.00;93760.56;5097944;28;20206;-56
2022/06/14 03:46:21;;;;;;;1999.90;999.90;;;;;;;15.44;100.00;93796.78;5097377;28;20280;-55
2022/06/14 03:48:52;;;;;;;1999.90;999.90;;;;;;;15.67;100.00;93837.94;5114831;28;20303;-56
2022/06/14 03:51:31;;;;;;;1999.90;999.90;;;;;;;15.89;100.00;93882.38;5096886;28;20270;-69
2022/06/14 03:54:21;;;;;;;1999.90;999.90;;;;;;;15.94;100.00;93923.03;5097783;28;20195;-67
2022/06/14 03:57:10;;;;;;;1999.90;999.90;;;;;;;16.10;100.00;93977.66;5115021;28;20194;-67
2022/06/14 03:59:57;;;;;;;1999.90;999.90;;;;;;;16.37;100.00;93985.69;5114382;28;20184;-67
2022/06/14 04:02:54;;;;;;;1999.90;999.90;;;;;;;16.69;100.00;94035.59;5114574;28;20265;-67
2022/06/14 04:05:43;;;;;;;1999.90;999.90;;;;;;;17.22;100.00;94102.47;5114197;28;20188;-66
2022/06/14 04:08:55;;;;;;;1999.90;999.90;;;;;;;17.90;100.00;94200.44;5114231;28;20191;-66
2022/06/14 04:11:24;;;;;;;1999.90;999.90;;;;;;;18.52;100.00;94328.06;5096921;28;20195;-63
2022/06/14 04:13:57;;;;;;;1999.90;999.90;;;;;;;18.82;100.00;94440.16;5114667;28;20219;-67
2022/06/14 04:16:33;;;;;;;1999.90;999.90;;;;;;;19.21;100.00;94532.91;5097123;28;20244;-67
2022/06/14 04:19:30;;;;;;;1999.90;999.90;;;;;;;19.48;100.00;94662.00;5114108;28;20191;-67
2022/06/14 04:22:06;;;;;;;1999.90;999.90;;;;;;;19.85;100.00;94730.38;5114368;28;20250;-66
2022/06/14 04:24:41;;;;;;;1999.90;999.90;;;;;;;20.15;100.00;94798.47;5114353;28;20187;-70
2022/06/14 04:27:39;;;;;;;1999.90;999.90;;;;;;;20.39;100.00;94856.59;5114358;28;20191;-67
2022/06/14 04:30:20;;;;;;;1999.90;999.90;;;;;;;20.71;100.00;94930.53;5096679;28;20198;-61
2022/06/14 04:32:57;;;;;;;1999.90;999.90;;;;;;;20.86;100.00;95018.13;5096838;28;20200;-69
2022/06/14 04:35:40;;;;;;;1999.90;999.90;;;;;;;20.95;100.00;95075.59;5114148;28;20198;-72
2022/06/14 04:38:15;;;;;;;1999.90;999.90;;;;;;;21.36;100.00;95078.09;5096175;28;20207;-70
2022/06/14 04:40:52;;;;;;;1999.90;999.90;;;;;;;21.46;100.00;95137.84;5113892;28;20183;-72
2022/06/14 04:43:24;;;;;;;1999.90;999.90;;;;;;;21.41;100.00;95160.78;5114192;28;20214;-72
2022/06/14 04:46:07;;;;;;;1999.90;999.90;;;;;;;21.61;100.00;95177.56;5113464;28;20183;-58
2022/06/14 04:48:55;;;;;;;1999.90;999.90;;;;;;;21.83;100.00;95200.19;5113359;28;20192;-68
2022/06/14 04:51:49;;;;;;;1999.90;999.90;;;;;;;21.95;100.00;95235.28;5096338;28;20188;-60
2022/06/14 04:54:21;;;;;;;1999.90;999.90;;;;;;;22.10;100.00;95263.84;5083143;28;20200;-61
2022/06/14 04:57:13;;;;;;;1999.90;999.90;;;;;;;22.24;100.00;95270.66;5096663;28;20234;-63
2022/06/14 05:00:10;;;;;;;1999.90;999.90;;;;;;;22.42;100.00;95304.59;5095567;28;20275;-60
2022/06/14 05:02:48;;;;;;;1999.90;999.90;;;;;;;22.23;100.00;95434.09;5096014;28;20203;-60
2022/06/14 05:05:21;;;;;;;1999.90;999.90;;;;;;;21.92;100.00;95464.31;5096533;28;20187;-65
2022/06/14 05:07:51;;;;;;;1999.90;999.90;;;;;;;22.11;100.00;95487.97;5113301;28;20212;-56
2022/06/14 05:10:23;;;;;;;1999.90;999.90;;;;;;;22.30;100.00;95528.31;5113613;28;20274;-58
2022/06/14 05:13:04;;;;;;;1999.90;999.90;;;;;;;22.81;100.00;95571.84;5113754;28;20191;-58
2022/06/14 05:15:41;;;;;;;1999.90;999.90;;;;;;;23.14;100.00;95608.69;5096306;28;20198;-57
2022/06/14 05:18:20;;;;;;;1999.90;999.90;;;;;;;23.48;95.59;95655.44;5096492;28;20286;-57
2022/06/14 05:20:55;;;;;;;1999.90;999.90;;;;;;;23.54;94.15;95673.06;5113608;28;20278;-57
2022/06/14 05:23:23;;;;;;;1999.90;999.90;;;;;;;23.89;92.02;95687.88;5096597;28;20294;-58
2022/06/14 05:26:01;;;;;;;1999.90;999.90;;;;;;;23.65;88.91;95707.50;5113059;28;20187;-60
2022/06/14 05:28:40;;;;;;;1999.90;999.90;;;;;;;24.13;86.31;95711.63;5095905;28;20191;-60
2022/06/14 05:31:26;;;;;;;1999.90;999.90;;;;;;;24.96;81.61;95735.19;5096362;28;20266;-60
2022/06/14 05:34:11;;;;;;;1999.90;999.90;;;;;;;25.09;74.83;95755.19;5096116;28;20195;-61
2022/06/14 05:36:45;;;;;;;1999.90;999.90;;;;;;;24.81;75.78;95768.78;5113115;28;20183;-64
2022/06/14 05:39:46;;;;;;;1999.90;999.90;;;;;;;24.98;72.29;95771.81;5112675;28;20365;-60
2022/06/14 05:42:20;;;;;;;1999.90;999.90;;;;;;;25.34;70.21;95782.47;5113155;28;20216;-56
2022/06/14 05:44:48;;;;;;;1999.90;999.90;;;;;;;25.33;67.29;95792.13;5095592;28;20204;-60
2022/06/14 05:47:17;;;;;;;1999.90;999.90;;;;;;;25.45;66.33;95801.44;5112760;28;20192;-61
2022/06/14 05:49:48;;;;;;;1999.90;999.90;;;;;;;25.54;63.08;95799.25;5095779;28;20195;-61
2022/06/14 05:52:20;;;;;;;1999.90;999.90;;;;;;;25.27;60.52;95799.66;5096029;28;20176;-61
2022/06/14 05:55:01;;;;;;;1999.90;999.90;;;;;;;25.89;57.90;95804.75;5095810;28;20303;-61
2022/06/14 05:57:33;;;;;;;1999.90;999.90;;;;;;;25.89;56.99;95810.34;5095665;28;20275;-61
2022/06/14 06:00:11;;;;;;;1999.90;999.90;;;;;;;25.99;53.37;95815.31;5095641;28;20192;-58
2022/06/14 06:02:44;;;;;;;1999.90;999.90;;;;;;;26.07;49.05;95819.19;5112410;28;20203;-61
2022/06/14 06:05:21;;;;;;;1999.90;999.90;;;;;;;26.28;49.92;95820.69;5113247;28;20184;-62
2022/06/14 06:07:55;;;;;;;1999.90;999.90;;;;;;;25.82;51.88;95810.78;5112511;28;20207;-65
2022/06/14 06:10:26;;;;;;;1999.90;999.90;;;;;;;25.83;49.80;95815.88;5112588;28;20195;-66
2022/06/14 06:12:59;;;;;;;1999.90;999.90;;;;;;;26.76;47.08;95818.03;5113398;28;20222;-66
2022/06/14 06:15:40;;;;;;;1999.90;999.90;;;;;;;25.97;49.34;95819.88;5116094;28;20194;-65
2022/06/14 06:18:12;;;;;;;1999.90;999.90;;;;;;;26.03;48.38;95826.31;5116420;28;20186;-61
2022/06/14 06:21:04;;;;;;;1999.90;999.90;;;;;;;26.44;46.54;95814.44;5116585;28;20168;-61
2022/06/14 06:23:37;;;;;;;1999.90;999.90;;;;;;;25.61;44.27;95826.03;5116112;28;20344;-53
2022/06/14 06:26:04;;;;;;;1999.90;999.90;;;;;;;25.93;45.87;95817.25;5116106;28;20176;-53
2022/06/14 06:28:37;;;;;;;1999.90;999.90;;;;;;;26.45;43.69;95818.81;5098731;28;20199;-56
2022/06/14 06:31:31;;;;;;;1999.90;999.90;;;;;;;26.60;44.48;95819.47;5116105;28;20190;-54
2022/06/14 06:34:00;;;;;;;1999.90;999.90;;;;;;;26.02;44.09;95819.16;5098327;28;20199;-53
2022/06/14 06:36:44;;;;;;;1999.90;999.90;;;;;;;26.76;41.70;95824.41;5115517;28;20237;-57
2022/06/14 06:39:30;;;;;;;1999.90;999.90;;;;;;;26.40;43.58;95816.72;5116063;28;20357;-64
2022/06/14 06:41:59;;;;;;;1999.90;999.90;;;;;;;26.56;42.31;95818.91;5115669;28;20284;-60
2022/06/14 06:44:31;;;;;;;1999.90;999.90;;;;;;;26.58;41.60;95827.56;5098983;28;20191;-60
2022/06/14 06:47:10;;;;;;;1999.90;999.90;;;;;;;27.05;40.57;95815.69;5115448;28;20180;-60
2022/06/14 06:50:07;;;;;;;1999.90;999.90;;;;;;;26.91;40.91;95822.22;5115506;28;20191;-60
2022/06/14 06:52:46;;;;;;;1999.90;999.90;;;;;;;26.97;42.78;95814.63;5082552;28;20196;-59
2022/06/14 06:55:22;;;;;;;1999.90;999.90;;;;;;;27.89;40.30;95804.38;5115632;28;20215;-60
2022/06/14 06:57:51;;;;;;;1999.90;999.90;;;;;;;26.97;39.10;95817.44;5098586;28;20182;-69
2022/06/14 07:00:19;;;;;;;1999.90;999.90;;;;;;;27.72;39.85;95806.34;5098292;28;20206;-68
2022/06/14 07:02:50;;;;;;;1999.90;999.90;;;;;;;28.12;38.41;95805.97;5098381;28;20229;-68
2022/06/14 07:05:18;;;;;;;1999.90;999.90;;;;;;;29.38;37.32;95812.06;5115432;28;20223;-71
2022/06/14 07:07:53;;;;;;;1999.90;999.90;;;;;;;29.36;36.44;95814.66;5115169;28;20187;-69
2022/06/14 07:10:21;;;;;;;1999.90;999.90;;;;;;;29.33;36.75;95815.69;5115458;28;20180;-68
2022/06/14 07:12:55;;;;;;;1999.90;999.90;;;;;;;28.78;35.93;95815.75;5115456;28;20210;-69
2022/06/14 07:15:28;;;;;;;1999.90;999.90;;;;;;;28.15;37.41;95810.56;5098679;28;20240;-60
2022/06/14 07:17:56;;;;;;;1999.90;999.90;;;;;;;29.58;35.09;95806.91;5098061;28;20267;-60
2022/06/14 07:20:50;;;;;;;1999.90;999.90;;;;;;;29.44;34.74;95810.00;5115007;28;20184;-60
2022/06/14 07:23:18;;;;;;;1999.90;999.90;;;;;;;29.02;35.28;95813.19;5098248;28;20196;-60
2022/06/14 07:25:55;;;;;;;1999.90;999.90;;;;;;;28.13;37.71;95815.94;5113766;28;20191;-60
2022/06/14 07:29:03;;;;;;;1999.90;999.90;;;;;;;30.29;35.48;95816.28;5115426;28;20187;-60
2022/06/14 07:32:05;;;;;;;1999.90;999.90;;;;;;;29.94;33.53;95816.22;5071361;28;20200;-66
2022/06/14 07:34:32;;;;;;;1999.90;999.90;;;;;;;31.46;33.38;95814.03;5114987;28;20195;-68
2022/06/14 07:37:16;;;;;;;1999.90;999.90;;;;;;;30.97;32.19;95824.50;5098240;28;20190;-67
2022/06/14 07:40:07;;;;;;;1999.90;999.90;;;;;;;31.70;31.52;95817.59;5114556;28;20274;-68
2022/06/14 07:42:54;;;;;;;1999.90;999.90;;;;;;;31.93;30.32;95813.22;5114474;28;20239;-68
2022/06/14 07:45:28;;;;;;;1999.90;999.90;;;;;;;32.29;30.66;95808.84;5114594;28;20184;-68
2022/06/14 07:48:09;;;;;;;1999.90;999.90;;;;;;;30.93;31.37;95801.47;5114896;28;20184;-67
2022/06/14 07:50:41;;;;;;;1999.90;999.90;;;;;;;30.58;31.74;95818.38;5114426;28;20210;-63
2022/06/14 07:53:16;;;;;;;1999.90;999.90;;;;;;;29.92;33.35;95811.13;5114577;28;20196;-65
2022/06/14 07:55:55;;;;;;;1999.90;999.90;;;;;;;30.22;33.57;95800.72;5114986;28;20176;-65
2022/06/14 07:58:35;;;;;;;1999.90;999.90;;;;;;;30.88;31.05;95799.47;5114618;28;20180;-66
2022/06/14 08:01:08;;;;;;;1999.90;999.90;;;;;;;31.59;31.27;95800.78;5114546;28;20172;-65
2022/06/14 08:03:48;;;;;;;1999.90;999.90;;;;;;;30.49;31.12;95802.56;5097713;28;20228;-65
2022/06/14 08:06:32;;;;;;;1999.90;999.90;;;;;;;31.08;31.00;95801.81;5114254;28;20248;-65
2022/06/14 08:09:10;;;;;;;1999.90;999.90;;;;;;;30.87;31.76;95792.25;5114595;28;20279;-59
2022/06/14 08:11:46;;;;;;;1999.90;999.90;;;;;;;30.65;31.71;95803.72;5114223;28;20206;-69
2022/06/14 08:14:39;;;;;;;1999.90;999.90;;;;;;;31.93;30.73;95796.25;5097234;28;20184;-69
2022/06/14 08:17:08;;;;;;;1999.90;999.90;;;;;;;30.08;32.59;95803.84;5114299;28;20192;-68
2022/06/14 08:19:50;;;;;;;1999.90;999.90;;;;;;;32.09;30.09;95789.63;5097143;28;20179;-69
2022/06/14 08:22:24;;;;;;;1999.90;999.90;;;;;;;29.90;33.83;95801.66;5097340;28;20215;-69
2022/06/14 08:24:54;;;;;;;1999.90;999.90;;;;;;;30.36;34.02;95796.00;5114457;28;20180;-68
2022/06/14 08:27:32;;;;;;;1999.90;999.90;;;;;;;32.05;30.04;95800.47;5114497;28;20194;-58
2022/06/14 08:30:08;;;;;;;1999.90;999.90;;;;;;;32.35;30.36;95798.25;5097399;28;20271;-69
2022/06/14 08:32:58;;;;;;;1999.90;999.90;;;;;;;31.35;31.24;95803.59;5113973;28;20270;-70
2022/06/14 08:35:40;;;;;;;1999.90;999.90;;;;;;;31.80;31.48;95799.00;5096694;28;20183;-68
2022/06/14 08:38:33;;;;;;;1999.90;999.90;;;;;;;32.97;29.48;95795.97;5113746;28;20206;-68
2022/06/14 08:41:19;;;;;;;1999.90;999.90;;;;;;;32.20;29.47;95795.09;5096767;28;20191;-68
2022/06/14 08:43:49;;;;;;;1999.90;999.90;;;;;;;31.55;30.42;95800.31;5113719;28;20244;-68
2022/06/14 08:46:29;;;;;;;1999.90;999.90;;;;;;;30.67;31.68;95801.16;5114153;28;20183;-67
2022/06/14 08:49:13;;;;;;;1999.90;999.90;;;;;;;30.77;30.93;95799.56;5096828;28;20192;-60
2022/06/14 08:52:15;;;;;;;1999.90;999.90;;;;;;;30.53;31.92;95802.28;5113831;28;20196;-60
2022/06/14 08:55:06;;;;;;;1999.90;999.90;;;;;;;31.00;30.74;95795.97;5096982;28;20252;-60
2022/06/14 08:58:00;;;;;;;1999.90;999.90;;;;;;;32.24;30.28;95791.97;5114016;28;20197;-60
2022/06/14 09:00:34;;;;;;;1999.90;999.90;;;;;;;33.36;28.82;95779.81;5113634;28;20236;-60
2022/06/14 09:03:06;;;;;;;1999.90;999.90;;;;;;;31.91;28.62;95790.38;5114754;28;20195;-65
2022/06/14 09:05:57;;;;;;;1999.90;999.90;;;;;;;30.72;30.00;95789.06;5113829;28;20190;-57
2022/06/14 09:08:42;;;;;;;1999.90;999.90;;;;;;;30.66;32.53;95783.44;5096351;28;20184;-58
2022/06/14 09:11:29;;;;;;;1999.90;999.90;;;;;;;31.22;32.18;95782.94;5113492;28;20184;-57
2022/06/14 09:14:32;;;;;;;1999.90;999.90;;;;;;;31.05;30.74;95794.41;5096694;28;20183;-58
2022/06/14 09:17:34;;;;;;;1999.90;999.90;;;;;;;31.36;29.97;95776.91;5113695;28;20191;-58
2022/06/14 09:20:14;;;;;;;1999.90;999.90;;;;;;;31.84;30.53;95774.03;5045927;28;20292;-58
2022/06/14 09:22:52;;;;;;;1999.90;999.90;;;;;;;30.42;31.02;95788.28;5096306;28;20211;-58
2022/06/14 09:25:36;;;;;;;1999.90;999.90;;;;;;;31.05;30.20;95792.34;5112894;28;20250;-57
2022/06/14 09:28:35;;;;;;;1999.90;999.90;;;;;;;31.02;30.48;95786.97;5113066;28;20226;-57
2022/06/14 09:31:21;;;;;;;1999.90;999.90;;;;;;;32.22;28.93;95788.91;5113167;28;20184;-57
2022/06/14 09:34:00;;;;;;;1999.90;999.90;;;;;;;32.11;29.17;95774.94;5096116;28;20320;-57
2022/06/14 09:37:10;;;;;;;1999.90;999.90;;;;;;;31.63;29.73;95772.97;5113166;28;20168;-57
2022/06/14 09:40:12;;;;;;;1999.90;999.90;;;;;;;30.06;31.32;95787.47;5095911;28;20211;-68
2022/06/14 09:43:12;;;;;;;1999.90;999.90;;;;;;;29.85;31.77;95777.84;5113345;28;20215;-71
2022/06/14 09:45:44;;;;;;;1999.90;999.90;;;;;;;31.55;29.96;95768.47;5112991;28;20180;-70
2022/06/14 09:48:19;;;;;;;1999.90;999.90;;;;;;;30.58;31.45;95781.72;5114034;28;20194;-69
2022/06/14 09:51:19;;;;;;;1999.90;999.90;;;;;;;32.35;29.67;95763.53;5116559;28;20278;-69
2022/06/14 09:54:13;;;;;;;1999.90;999.90;;;;;;;30.49;33.08;95770.78;5099754;28;20188;-69
2022/06/14 09:57:01;;;;;;;1999.90;999.90;;;;;;;30.33;33.25;95768.84;5117166;28;20176;-69
2022/06/14 09:59:45;;;;;;;1999.90;999.90;;;;;;;29.51;35.08;95779.28;5099169;28;20187;-56
2022/06/14 10:02:38;;;;;;;1999.90;999.90;;;;;;;30.51;34.94;95783.06;5099799;28;20339;-61
2022/06/14 10:05:10;;;;;;;1999.90;999.90;;;;;;;29.57;36.97;95780.00;5116691;28;20187;-61
2022/06/14 10:08:19;;;;;;;1999.90;999.90;;;;;;;31.16;33.67;95766.06;5116409;28;20256;-61
2022/06/14 10:10:52;;;;;;;1999.90;999.90;;;;;;;30.54;33.58;95770.75;5116713;28;20254;-61
2022/06/14 10:13:31;;;;;;;1999.90;999.90;;;;;;;30.31;33.77;95774.25;5099136;28;20237;-61
2022/06/14 10:16:29;;;;;;;1999.90;999.90;;;;;;;30.33;34.17;95761.16;5116225;28;20283;-61
2022/06/14 10:19:00;;;;;;;1999.90;999.90;;;;;;;30.32;35.40;95770.13;5065949;28;20192;-57
2022/06/14 10:21:36;;;;;;;1999.90;999.90;;;;;;;29.88;36.13;95765.53;5116546;28;20194;-58
2022/06/14 10:24:10;;;;;;;1999.90;999.90;;;;;;;29.12;37.24;95772.22;5116066;28;20199;-57
2022/06/14 10:30:01;;;;;;;1999.90;999.90;;;;;;;29.87;35.54;95758.38;5117109;28;20241;-58
2022/06/14 10:32:57;;;;;;;1999.90;999.90;;;;;;;31.10;34.43;95751.25;5115950;28;20236;-58
2022/06/14 10:35:57;;;;;;;1999.90;999.90;;;;;;;30.73;34.05;95753.91;5115605;28;20332;-61
2022/06/14 10:38:22;;;;;;;1999.90;999.90;;;;;;;31.28;33.54;95753.38;5116588;28;20211;-58
2022/06/14 10:41:29;;;;;;;1999.90;999.90;;;;;;;30.03;34.01;95748.28;5116095;28;20179;-57
2022/06/14 10:44:26;;;;;;;1999.90;999.90;;;;;;;31.17;33.21;95747.06;5076699;28;20220;-57
2022/06/14 10:47:16;;;;;;;1999.90;999.90;;;;;;;28.91;36.76;95752.03;5115543;28;20199;-57
2022/06/14 10:50:08;;;;;;;1999.90;999.90;;;;;;;29.61;35.21;95758.00;5115842;28;20187;-57
2022/06/14 10:53:10;;;;;;;1999.90;999.90;;;;;;;30.18;33.80;95749.47;5075530;28;20195;-57
2022/06/14 10:55:47;;;;;;;1999.90;999.90;;;;;;;28.83;36.12;95755.88;5115973;28;20295;-58
2022/06/14 10:58:49;;;;;;;1999.90;999.90;;;;;;;30.32;34.61;95744.75;5115941;28;20198;-69
2022/06/14 11:01:52;;;;;;;1999.90;999.90;;;;;;;28.64;36.68;95743.66;5116154;28;20191;-68
2022/06/14 11:04:54;;;;;;;1999.90;999.90;;;;;;;29.93;34.09;95742.19;5098679;28;20632;-69
2022/06/14 11:07:45;;;;;;;1999.90;999.90;;;;;;;29.75;34.75;95745.63;5098624;28;20191;-68
2022/06/14 11:10:10;;;;;;;1999.90;999.90;;;;;;;28.59;37.23;95744.44;5098453;28;20236;-68
2022/06/14 11:13:03;;;;;;;1999.90;999.90;;;;;;;29.44;35.83;95742.44;5115135;28;20188;-68
2022/06/14 11:15:50;;;;;;;1999.90;999.90;;;;;;;30.65;33.91;95741.66;5116257;28;20172;-68
2022/06/14 11:18:46;;;;;;;1999.90;999.90;;;;;;;31.23;31.62;95734.41;5115769;28;20274;-68
2022/06/14 11:21:23;;;;;;;1999.90;999.90;;;;;;;31.40;32.59;95732.19;5114984;28;20179;-68
2022/06/14 11:24:03;;;;;;;1999.90;999.90;;;;;;;29.95;34.80;95730.41;5114864;28;20261;-68
2022/06/14 11:26:56;;;;;;;1999.90;999.90;;;;;;;29.47;35.19;95728.09;5115231;28;20183;-68
2022/06/14 11:29:40;;;;;;;1999.90;999.90;;;;;;;31.11;33.21;95728.13;5114634;28;20183;-68
2022/06/14 11:32:23;;;;;;;1999.90;999.90;;;;;;;31.04;33.24;95725.13;5114948;28;20202;-58
2022/06/14 11:35:07;;;;;;;1999.90;999.90;;;;;;;29.39;34.86;95732.72;5097868;28;20195;-59
2022/06/14 11:37:51;;;;;;;1999.90;999.90;;;;;;;29.76;34.19;95723.88;5114865;28;20180;-58
2022/06/14 11:40:24;;;;;;;1999.90;999.90;;;;;;;28.69;35.43;95723.22;5115685;28;20229;-58
2022/06/14 11:42:57;;;;;;;1999.90;999.90;;;;;;;28.10;36.88;95713.00;5097982;28;20207;-58
2022/06/14 11:46:04;;;;;;;1999.90;999.90;;;;;;;28.74;35.73;95714.00;5115040;28;20274;-59
2022/06/14 11:48:41;;;;;;;1999.90;999.90;;;;;;;28.15;37.55;95715.03;5097747;28;20186;-66
2022/06/14 11:51:36;;;;;;;1999.90;999.90;;;;;;;29.54;34.91;95715.50;5097862;28;20184;-58
2022/06/14 11:54:39;;;;;;;1999.90;999.90;;;;;;;28.64;36.56;95707.88;5061726;28;20195;-61